createdAt,value
2018-10-06T00:02:31.138Z,9.13
2018-10-06T00:05:14.685Z,8.90
2018-10-06T00:07:57.867Z,8.00
2018-10-06T00:10:40.502Z,10.40
2018-10-06T00:13:22.995Z,9.83
2018-10-06T00:16:05.738Z,9.47
2018-10-06T00:18:48.422Z,10.27
2018-10-06T00:21:31.454Z,10.13
2018-10-06T00:24:14.127Z,9.10
2018-10-06T00:26:56.874Z,10.00
2018-10-06T00:29:40.010Z,13.00
2018-10-06T00:32:22.610Z,11.40
2018-10-06T00:35:05.299Z,9.53
2018-10-06T00:37:47.997Z,8.07
2018-10-06T00:40:30.993Z,9.10
2018-10-06T00:43:14.238Z,8.43
2018-10-06T00:45:58.106Z,6.97
2018-10-06T00:48:41.091Z,8.50
2018-10-06T00:51:23.754Z,7.27
2018-10-06T00:54:07.040Z,6.70
2018-10-06T00:56:50.266Z,7.57
2018-10-06T00:59:33.463Z,6.90
2018-10-06T01:02:16.475Z,6.77
2018-10-06T01:05:00.239Z,7.87
2018-10-06T01:07:43.107Z,5.80
2018-10-06T01:10:26.898Z,7.10
2018-10-06T01:13:09.743Z,7.00
2018-10-06T01:15:53.470Z,6.50
2018-10-06T01:18:37.348Z,6.40
2018-10-06T01:21:20.616Z,6.23
2018-10-06T01:24:03.323Z,6.80
2018-10-06T01:26:46.662Z,7.80
2018-10-06T01:29:32.939Z,7.00
2018-10-06T01:32:15.909Z,6.37
2018-10-06T01:34:59.554Z,6.73
2018-10-06T01:37:42.927Z,6.50
2018-10-06T01:40:25.790Z,6.70
2018-10-06T01:43:08.121Z,6.87
2018-10-06T01:45:50.970Z,6.73
2018-10-06T01:48:34.010Z,7.20
2018-10-06T01:51:16.521Z,6.20
2018-10-06T01:54:00.024Z,7.23
2018-10-06T01:56:43.126Z,6.37
2018-10-06T01:59:25.977Z,6.90
2018-10-06T02:02:08.690Z,6.80
2018-10-06T02:04:51.553Z,7.00
2018-10-06T02:07:34.102Z,6.90
2018-10-06T02:10:16.630Z,7.17
2018-10-06T02:12:59.903Z,7.13
2018-10-06T02:15:43.123Z,6.40
2018-10-06T02:18:26.642Z,7.67
2018-10-06T02:21:09.466Z,6.47
2018-10-06T02:23:52.506Z,6.60
2018-10-06T02:26:35.602Z,7.30
2018-10-06T02:29:17.839Z,7.10
2018-10-06T02:32:00.835Z,6.97
2018-10-06T02:34:43.816Z,7.20
2018-10-06T02:37:26.386Z,7.40
2018-10-06T02:40:09.116Z,7.80
2018-10-06T02:42:51.902Z,7.10
2018-10-06T02:45:35.555Z,7.93
2018-10-06T02:48:18.845Z,7.07
2018-10-06T02:51:01.506Z,7.00
2018-10-06T02:53:44.142Z,6.70
2018-10-06T02:56:28.856Z,7.10
2018-10-06T02:59:11.946Z,8.03
2018-10-06T03:01:54.742Z,7.40
2018-10-06T03:04:37.735Z,7.40
2018-10-06T03:07:20.639Z,7.50
2018-10-06T03:10:03.774Z,6.87
2018-10-06T03:12:46.619Z,6.97
2018-10-06T03:15:29.506Z,7.90
2018-10-06T03:18:12.599Z,6.70
2018-10-06T03:20:54.843Z,7.23
2018-10-06T03:23:37.995Z,6.43
2018-10-06T03:26:20.388Z,6.87
2018-10-06T03:29:03.073Z,7.20
2018-10-06T03:31:45.851Z,7.20
2018-10-06T03:34:28.711Z,7.83
2018-10-06T03:37:11.342Z,7.00
2018-10-06T03:39:54.122Z,7.73
2018-10-06T03:42:36.998Z,7.80
2018-10-06T03:45:19.957Z,7.20
2018-10-06T03:48:02.562Z,7.50
2018-10-06T03:50:45.353Z,7.50
2018-10-06T03:53:28.450Z,7.40
2018-10-06T03:56:11.570Z,7.27
2018-10-06T03:58:55.088Z,7.50
2018-10-06T04:01:38.119Z,7.10
2018-10-06T04:04:21.350Z,6.60
2018-10-06T04:07:04.381Z,6.83
2018-10-06T04:09:47.433Z,6.63
2018-10-06T04:12:30.134Z,7.30
2018-10-06T04:15:13.954Z,6.97
2018-10-06T04:17:56.494Z,7.10
2018-10-06T04:20:39.916Z,6.97
2018-10-06T04:23:23.052Z,7.60
2018-10-06T04:26:06.019Z,7.50
2018-10-06T04:28:49.110Z,7.37
2018-10-06T04:31:31.781Z,7.30
2018-10-06T04:34:15.156Z,7.00
2018-10-06T04:36:58.054Z,7.27
2018-10-06T04:39:41.282Z,7.23
2018-10-06T04:42:24.175Z,7.80
2018-10-06T04:45:06.902Z,7.00
2018-10-06T04:47:49.773Z,6.20
2018-10-06T04:50:33.426Z,7.53
2018-10-06T04:53:16.506Z,7.70
2018-10-06T04:55:59.381Z,7.00
2018-10-06T04:58:42.059Z,6.50
2018-10-06T05:01:24.838Z,7.37
2018-10-06T05:04:07.520Z,6.87
2018-10-06T05:06:50.389Z,6.10
2018-10-06T05:09:33.331Z,7.17
2018-10-06T05:12:16.179Z,7.07
2018-10-06T05:14:59.198Z,6.40
2018-10-06T05:17:42.079Z,5.97
2018-10-06T05:20:24.871Z,7.10
2018-10-06T05:23:07.629Z,6.67
2018-10-06T05:25:51.058Z,6.70
2018-10-06T05:28:33.835Z,7.33
2018-10-06T05:31:16.750Z,6.43
2018-10-06T05:33:59.473Z,6.47
2018-10-06T05:36:42.298Z,6.80
2018-10-06T05:39:25.249Z,6.33
2018-10-06T05:42:08.158Z,6.93
2018-10-06T05:44:50.832Z,8.67
2018-10-06T05:47:33.767Z,7.00
2018-10-06T05:50:16.920Z,6.67
2018-10-06T05:52:59.485Z,6.70
2018-10-06T05:55:42.722Z,6.33
2018-10-06T05:58:25.106Z,7.13
2018-10-06T06:01:07.797Z,6.40
2018-10-06T06:03:50.892Z,6.83
2018-10-06T06:06:34.061Z,6.90
2018-10-06T06:09:16.356Z,6.43
2018-10-06T06:11:59.170Z,6.80
2018-10-06T06:14:42.016Z,5.97
2018-10-06T06:17:25.015Z,7.10
2018-10-06T06:20:08.400Z,6.80
2018-10-06T06:22:51.186Z,6.20
2018-10-06T06:25:33.635Z,6.40
2018-10-06T06:28:16.372Z,6.20
2018-10-06T06:30:59.218Z,6.23
2018-10-06T06:33:42.781Z,5.83
2018-10-06T06:36:25.791Z,5.93
2018-10-06T06:39:09.530Z,6.30
2018-10-06T06:41:52.521Z,6.93
2018-10-06T06:44:35.466Z,6.03
2018-10-06T06:47:18.566Z,5.77
2018-10-06T06:50:01.230Z,6.10
2018-10-06T06:52:44.229Z,6.13
2018-10-06T06:55:27.002Z,5.70
2018-10-06T06:58:09.319Z,4.87
2018-10-06T07:00:52.479Z,5.73
2018-10-06T07:03:35.248Z,4.63
2018-10-06T07:06:18.390Z,4.70
2018-10-06T07:09:00.947Z,4.30
2018-10-06T07:11:43.977Z,4.00
2018-10-06T07:14:27.367Z,4.47
2018-10-06T07:17:09.989Z,4.67
2018-10-06T07:19:53.548Z,4.23
2018-10-06T07:22:36.226Z,4.97
2018-10-06T07:25:18.962Z,5.40
2018-10-06T07:28:01.502Z,4.17
2018-10-06T07:30:44.801Z,4.33
2018-10-06T07:33:27.822Z,4.73
2018-10-06T07:36:12.100Z,4.90
2018-10-06T07:38:55.525Z,5.27
2018-10-06T07:41:40.900Z,4.93
2018-10-06T07:44:24.882Z,5.20
2018-10-06T07:47:08.186Z,5.10
2018-10-06T07:49:50.747Z,4.73
2018-10-06T07:52:33.818Z,4.63
2018-10-06T07:55:16.874Z,4.27
2018-10-06T07:57:59.690Z,4.23
2018-10-06T08:00:43.163Z,3.93
2018-10-06T08:03:27.292Z,4.10
2018-10-06T08:06:10.114Z,5.20
2018-10-06T08:08:52.850Z,5.20
2018-10-06T08:11:36.064Z,5.60
2018-10-06T08:14:19.017Z,4.70
2018-10-06T08:17:02.013Z,5.47
2018-10-06T08:19:45.371Z,4.90
2018-10-06T08:22:27.950Z,4.97
2018-10-06T08:25:10.390Z,5.93
2018-10-06T08:27:53.777Z,4.87
2018-10-06T08:30:36.282Z,5.17
2018-10-06T08:33:19.022Z,5.00
2018-10-06T08:36:02.283Z,5.23
2018-10-06T08:38:45.079Z,4.63
2018-10-06T08:41:28.239Z,5.10
2018-10-06T08:44:10.966Z,4.20
2018-10-06T08:46:54.303Z,6.30
2018-10-06T08:49:36.916Z,4.27
2018-10-06T08:52:19.735Z,4.30
2018-10-06T08:55:02.770Z,4.40
2018-10-06T08:57:45.317Z,4.53
2018-10-06T09:00:28.480Z,4.20
2018-10-06T09:03:11.242Z,5.70
2018-10-06T09:05:53.910Z,4.93
2018-10-06T09:08:37.110Z,5.27
2018-10-06T09:11:20.064Z,4.53
2018-10-06T09:14:03.235Z,4.93
2018-10-06T09:16:46.041Z,5.70
2018-10-06T09:19:28.982Z,5.10
2018-10-06T09:22:11.931Z,4.77
2018-10-06T09:24:54.790Z,5.10
2018-10-06T09:27:37.144Z,5.27
2018-10-06T09:30:19.915Z,4.50
2018-10-06T09:33:02.276Z,4.20
2018-10-06T09:35:45.342Z,5.43
2018-10-06T09:38:28.133Z,5.23
2018-10-06T09:41:11.094Z,4.70
2018-10-06T09:43:53.607Z,4.90
2018-10-06T09:46:36.307Z,4.70
2018-10-06T09:49:18.934Z,4.80
2018-10-06T09:52:01.755Z,4.50
2018-10-06T09:54:44.310Z,5.63
2018-10-06T09:57:27.510Z,4.80
2018-10-06T10:00:10.269Z,4.70
2018-10-06T10:02:58.384Z,4.93
2018-10-06T10:05:46.123Z,5.17
2018-10-06T10:08:28.910Z,6.27
2018-10-06T10:11:11.761Z,5.60
2018-10-06T10:13:54.838Z,5.43
2018-10-06T10:16:37.410Z,4.70
2018-10-06T10:19:19.792Z,4.47
2018-10-06T10:22:03.072Z,4.33
2018-10-06T10:24:46.052Z,4.87
2018-10-06T10:27:28.290Z,4.87
2018-10-06T10:30:10.923Z,5.25
2018-10-06T10:32:53.640Z,5.92
2018-10-06T10:35:37.015Z,6.10
2018-10-06T10:38:20.082Z,6.17
2018-10-06T10:41:03.499Z,5.58
2018-10-06T10:43:46.192Z,5.30
2018-10-06T10:46:28.735Z,6.20
2018-10-06T10:49:11.153Z,6.75
2018-10-06T10:51:54.403Z,6.53
2018-10-06T10:54:37.091Z,7.13
2018-10-06T10:57:20.789Z,6.67
2018-10-06T11:00:03.837Z,7.80
2018-10-06T11:02:46.754Z,6.70
2018-10-06T11:05:29.931Z,7.90
2018-10-06T11:08:12.734Z,7.50
2018-10-06T11:10:55.725Z,7.50
2018-10-06T11:13:38.622Z,7.17
2018-10-06T11:16:21.258Z,7.80
2018-10-06T11:19:04.445Z,8.10
2018-10-06T11:21:47.014Z,7.90
2018-10-06T11:24:29.693Z,7.80
2018-10-06T11:27:12.917Z,7.90
2018-10-06T11:29:55.840Z,8.67
2018-10-06T11:32:38.537Z,8.77
2018-10-06T11:35:21.334Z,7.73
2018-10-06T11:38:04.517Z,8.17
2018-10-06T11:40:47.454Z,7.20
2018-10-06T11:43:30.294Z,6.70
2018-10-06T11:46:12.883Z,8.17
2018-10-06T11:48:55.643Z,7.77
2018-10-06T11:51:38.647Z,7.75
2018-10-06T11:54:21.230Z,6.87
2018-10-06T11:57:03.884Z,7.67
2018-10-06T11:59:54.593Z,7.58
2018-10-06T12:02:42.990Z,8.33
2018-10-06T12:05:30.945Z,7.70
2018-10-06T12:08:13.434Z,7.28
2018-10-06T12:10:56.986Z,6.58
2018-10-06T12:13:44.278Z,7.03
2018-10-06T12:16:26.979Z,7.03
2018-10-06T12:19:09.301Z,6.67
2018-10-06T12:21:53.895Z,6.75
2018-10-06T12:24:37.175Z,6.42
2018-10-06T12:27:20.283Z,4.87
2018-10-06T12:30:03.855Z,6.58
2018-10-06T12:32:47.330Z,6.17
2018-10-06T12:35:31.023Z,5.85
2018-10-06T12:38:14.303Z,5.55
2018-10-06T12:40:57.305Z,4.62
2018-10-06T12:43:41.609Z,5.00
2018-10-06T12:46:24.222Z,5.92
2018-10-06T12:49:07.754Z,4.25
2018-10-06T12:51:50.651Z,2.58
2018-10-06T12:54:33.859Z,2.70
2018-10-06T12:57:16.982Z,3.65
2018-10-06T13:00:00.947Z,2.17
2018-10-06T13:02:43.956Z,1.98
2018-10-06T13:05:26.932Z,2.30
2018-10-06T13:08:10.902Z,2.90
2018-10-06T13:10:53.388Z,3.30
2018-10-06T13:13:36.010Z,2.77
2018-10-06T13:16:19.081Z,3.00
2018-10-06T13:19:01.575Z,2.75
2018-10-06T13:21:44.425Z,2.47
2018-10-06T13:24:27.861Z,2.50
2018-10-06T13:27:11.558Z,2.70
2018-10-06T13:29:55.402Z,3.10
2018-10-06T13:32:38.496Z,2.80
2018-10-06T13:35:23.642Z,2.77
2018-10-06T13:38:07.895Z,3.30
2018-10-06T13:40:51.226Z,2.83
2018-10-06T13:43:34.793Z,3.95
2018-10-06T13:46:18.660Z,2.72
2018-10-06T13:49:01.802Z,3.25
2018-10-06T13:51:45.134Z,2.92
2018-10-06T13:54:28.271Z,2.83
2018-10-06T13:57:11.699Z,3.05
2018-10-06T13:59:55.026Z,3.22
2018-10-06T14:02:37.818Z,3.20
2018-10-06T14:05:20.750Z,3.10
2018-10-06T14:08:04.209Z,3.70
2018-10-06T14:10:47.186Z,3.58
2018-10-06T14:13:30.267Z,4.03
2018-10-06T14:16:14.032Z,3.60
2018-10-06T14:18:57.670Z,3.60
2018-10-06T14:21:40.241Z,3.37
2018-10-06T14:24:23.223Z,3.27
2018-10-06T14:27:05.727Z,4.47
2018-10-06T14:29:48.697Z,3.90
2018-10-06T14:32:31.495Z,4.00
2018-10-06T14:35:14.419Z,3.70
2018-10-06T14:37:57.002Z,3.50
2018-10-06T14:40:40.854Z,4.57
2018-10-06T14:43:23.747Z,4.10
2018-10-06T14:46:07.015Z,4.37
2018-10-06T14:48:49.825Z,4.50
2018-10-06T14:51:32.350Z,4.13
2018-10-06T14:54:14.909Z,3.80
2018-10-06T14:56:57.875Z,4.67
2018-10-06T14:59:40.856Z,4.20
2018-10-06T15:02:23.598Z,4.40
2018-10-06T15:05:06.783Z,3.80
2018-10-06T15:07:49.289Z,4.83
2018-10-06T15:10:32.734Z,4.47
2018-10-06T15:13:15.239Z,4.30
2018-10-06T15:15:58.094Z,5.03
2018-10-06T15:18:40.586Z,4.90
2018-10-06T15:21:24.044Z,4.23
2018-10-06T15:24:07.878Z,4.83
2018-10-06T15:26:50.354Z,4.50
2018-10-06T15:29:33.178Z,4.57
2018-10-06T15:32:16.105Z,4.70
2018-10-06T15:34:58.979Z,4.43
2018-10-06T15:37:41.620Z,4.20
2018-10-06T15:40:24.534Z,4.40
2018-10-06T15:43:08.264Z,4.90
2018-10-06T15:45:51.305Z,4.80
2018-10-06T15:48:34.359Z,4.73
2018-10-06T15:51:17.237Z,5.50
2018-10-06T15:54:00.721Z,4.33
2018-10-06T15:56:44.457Z,5.43
2018-10-06T15:59:27.176Z,4.77
2018-10-06T16:02:09.664Z,4.53
2018-10-06T16:04:52.603Z,4.07
2018-10-06T16:07:35.195Z,5.53
2018-10-06T16:10:18.670Z,4.67
2018-10-06T16:13:01.950Z,4.80
2018-10-06T16:15:45.131Z,4.90
2018-10-06T16:18:27.886Z,5.50
2018-10-06T16:21:11.023Z,4.77
2018-10-06T16:23:54.394Z,4.43
2018-10-06T16:26:36.994Z,4.90
2018-10-06T16:29:20.521Z,4.50
2018-10-06T16:32:03.622Z,4.90
2018-10-06T16:34:46.451Z,4.77
2018-10-06T16:37:29.954Z,4.47
2018-10-06T16:40:13.098Z,4.27
2018-10-06T16:42:55.778Z,4.30
2018-10-06T16:45:38.891Z,4.33
2018-10-06T16:48:22.171Z,4.17
2018-10-06T16:51:04.762Z,4.60
2018-10-06T16:53:48.157Z,3.80
2018-10-06T16:56:31.535Z,4.40
2018-10-06T16:59:15.254Z,4.10
2018-10-06T17:01:58.150Z,4.30
2018-10-06T17:04:40.568Z,3.70
2018-10-06T17:07:23.772Z,4.50
2018-10-06T17:10:08.459Z,4.83
2018-10-06T17:12:51.888Z,4.43
2018-10-06T17:15:35.253Z,3.97
2018-10-06T17:18:17.684Z,4.20
2018-10-06T17:21:00.474Z,4.27
2018-10-06T17:23:43.728Z,3.97
2018-10-06T17:26:32.852Z,3.30
2018-10-06T17:29:15.741Z,3.80
2018-10-06T17:31:59.092Z,3.60
2018-10-06T17:34:43.001Z,3.20
2018-10-06T17:37:26.598Z,4.20
2018-10-06T17:40:10.093Z,3.30
2018-10-06T17:42:53.099Z,4.03
2018-10-06T17:45:36.294Z,3.80
2018-10-06T17:48:19.796Z,4.07
2018-10-06T17:51:02.690Z,3.40
2018-10-06T17:53:48.884Z,3.13
2018-10-06T17:56:33.253Z,3.30
2018-10-06T17:59:17.158Z,3.30
2018-10-06T18:02:01.620Z,3.37
2018-10-06T18:04:44.359Z,4.83
2018-10-06T18:07:27.211Z,4.17
2018-10-06T18:10:10.855Z,3.87
2018-10-06T18:12:53.994Z,4.80
2018-10-06T18:15:37.678Z,3.97
2018-10-06T18:18:21.671Z,4.50
2018-10-06T18:21:04.317Z,3.87
2018-10-06T18:23:47.348Z,3.57
2018-10-06T18:26:30.233Z,4.50
2018-10-06T18:29:12.662Z,4.27
2018-10-06T18:31:55.758Z,4.17
2018-10-06T18:34:39.116Z,4.80
2018-10-06T18:37:22.116Z,4.50
2018-10-06T18:40:05.423Z,4.27
2018-10-06T18:42:48.376Z,5.03
2018-10-06T18:45:30.922Z,4.93
2018-10-06T18:48:13.862Z,4.43
2018-10-06T18:50:57.194Z,4.80
2018-10-06T18:53:40.261Z,4.73
2018-10-06T18:56:23.067Z,5.27
2018-10-06T18:59:06.549Z,5.23
2018-10-06T19:01:50.196Z,4.97
2018-10-06T19:04:32.729Z,5.50
2018-10-06T19:07:15.527Z,4.63
2018-10-06T19:09:58.037Z,5.33
2018-10-06T19:12:41.086Z,5.50
2018-10-06T19:15:23.845Z,5.97
2018-10-06T19:18:06.457Z,4.90
2018-10-06T19:20:49.564Z,5.20
2018-10-06T19:23:32.570Z,5.67
2018-10-06T19:26:14.992Z,5.50
2018-10-06T19:28:58.030Z,6.60
2018-10-06T19:31:41.241Z,6.17
2018-10-06T19:34:23.848Z,6.23
2018-10-06T19:37:07.041Z,5.70
2018-10-06T19:39:50.875Z,5.60
2018-10-06T19:42:34.717Z,6.73
2018-10-06T19:45:19.098Z,5.80
2018-10-06T19:48:02.550Z,5.90
2018-10-06T19:50:45.055Z,6.40
2018-10-06T19:53:28.372Z,6.40
2018-10-06T19:56:12.094Z,6.40
2018-10-06T19:58:54.837Z,5.70
2018-10-06T20:01:37.940Z,6.17
2018-10-06T20:04:21.370Z,5.83
2018-10-06T20:07:05.300Z,6.20
2018-10-06T20:09:48.286Z,6.30
2018-10-06T20:12:32.035Z,6.33
2018-10-06T20:15:14.957Z,6.40
2018-10-06T20:17:57.446Z,6.70
2018-10-06T20:20:40.430Z,6.87
2018-10-06T20:23:23.840Z,7.80
2018-10-06T20:26:06.491Z,7.57
2018-10-06T20:28:49.779Z,7.17
2018-10-06T20:31:33.811Z,7.00
2018-10-06T20:34:17.617Z,6.33
2018-10-06T20:37:00.634Z,7.40
2018-10-06T20:39:43.188Z,7.27
2018-10-06T20:42:26.162Z,7.90
2018-10-06T20:45:09.258Z,7.70
2018-10-06T20:47:51.808Z,7.53
2018-10-06T20:50:34.447Z,7.57
2018-10-06T20:53:17.202Z,7.73
2018-10-06T20:56:00.248Z,8.40
2018-10-06T20:58:42.890Z,9.37
2018-10-06T21:01:25.924Z,9.30
2018-10-06T21:04:08.599Z,7.60
2018-10-06T21:06:51.146Z,8.73
2018-10-06T21:09:34.287Z,7.87
2018-10-06T21:12:16.775Z,9.03
2018-10-06T21:14:59.873Z,9.47
2018-10-06T21:17:42.589Z,9.97
2018-10-06T21:20:25.892Z,9.70
2018-10-06T21:23:09.177Z,9.40
2018-10-06T21:25:52.162Z,10.03
2018-10-06T21:28:35.076Z,9.73
2018-10-06T21:31:17.760Z,9.40
2018-10-06T21:34:00.792Z,9.63
2018-10-06T21:36:43.882Z,10.17
2018-10-06T21:39:27.696Z,9.97
2018-10-06T21:42:10.826Z,10.43
2018-10-06T21:44:53.253Z,10.30
2018-10-06T21:47:37.330Z,10.43
2018-10-06T21:50:20.470Z,10.87
2018-10-06T21:53:03.025Z,10.50
2018-10-06T21:55:45.863Z,10.00
2018-10-06T21:58:28.282Z,9.80
2018-10-06T22:01:13.598Z,9.60
2018-10-06T22:03:56.101Z,9.33
2018-10-06T22:06:39.097Z,9.20
2018-10-06T22:09:21.477Z,9.60
2018-10-06T22:12:04.241Z,9.07
2018-10-06T22:14:46.978Z,6.50
2018-10-06T22:17:29.646Z,6.37
2018-10-06T22:20:12.210Z,7.37
2018-10-06T22:22:55.612Z,6.90
2018-10-06T22:25:39.100Z,6.93
2018-10-06T22:28:21.833Z,7.57
2018-10-06T22:31:04.363Z,7.53
2018-10-06T22:33:47.123Z,6.50
2018-10-06T22:36:30.218Z,7.10
2018-10-06T22:39:13.372Z,6.27
2018-10-06T22:41:55.859Z,6.00
2018-10-06T22:44:38.642Z,5.90
2018-10-06T22:47:21.462Z,6.43
2018-10-06T22:50:04.114Z,6.50
2018-10-06T22:52:47.142Z,6.37
2018-10-06T22:55:29.639Z,7.60
2018-10-06T22:58:12.700Z,6.50
2018-10-06T23:00:55.779Z,5.80
2018-10-06T23:03:39.998Z,7.00
2018-10-06T23:06:22.518Z,7.43
2018-10-06T23:09:07.594Z,6.80
2018-10-06T23:11:49.882Z,7.20
2018-10-06T23:14:32.749Z,7.57
2018-10-06T23:17:15.408Z,7.20
2018-10-06T23:19:57.926Z,6.57
2018-10-06T23:22:40.991Z,7.10
2018-10-06T23:25:23.681Z,6.23
2018-10-06T23:28:06.154Z,6.60
2018-10-06T23:30:48.743Z,6.77
2018-10-06T23:33:32.274Z,8.60
2018-10-06T23:36:14.435Z,6.40
2018-10-06T23:38:57.484Z,7.50
2018-10-06T23:41:40.111Z,7.10
2018-10-06T23:44:23.136Z,7.10
2018-10-06T23:47:05.705Z,7.30
2018-10-06T23:49:48.550Z,7.37
2018-10-06T23:52:31.150Z,7.40
2018-10-06T23:55:14.119Z,7.60
2018-10-06T23:57:56.848Z,7.27
